Time;durP1;ratioP1;P1;durP2;ratioP2;P2;SDS_P1;SDS_P2;PMS_P1;PMS_P2;Temp;Humidity;BMP_temperature;BMP_pressure;BME280_temperature;BME280_humidity;BME280_pressure;Samples;Min_cycle;Max_cycle;Signal;HPM_P1;HPM_P2
2023/01/28 00:01:50;;;;;;;3.40;1.50;;;3.50;95.60;;;;;;5084324;28;20770;-67
2023/01/28 00:04:17;;;;;;;4.57;1.40;;;3.50;95.70;;;;;;5074477;28;20043;-67
2023/01/28 00:06:43;;;;;;;3.42;1.60;;;3.50;95.70;;;;;;5068337;28;20032;-65
2023/01/28 00:09:09;;;;;;;4.53;1.83;;;3.40;95.70;;;;;;5071148;28;20107;-66
2023/01/28 00:11:35;;;;;;;5.28;1.88;;;3.40;96.00;;;;;;5067185;28;20036;-67
2023/01/28 00:14:03;;;;;;;6.13;1.40;;;3.40;95.70;;;;;;5072738;28;20395;-67
2023/01/28 00:16:29;;;;;;;4.53;1.80;;;3.40;95.90;;;;;;5069115;28;20043;-66
2023/01/28 00:18:55;;;;;;;3.70;1.38;;;3.40;95.90;;;;;;5071348;28;20077;-67
2023/01/28 00:21:21;;;;;;;3.80;1.30;;;3.40;95.80;;;;;;5064257;28;20029;-67
2023/01/28 00:23:51;;;;;;;3.47;1.20;;;3.40;95.80;;;;;;5067884;28;20042;-67
2023/01/28 00:26:17;;;;;;;3.50;1.38;;;3.40;95.80;;;;;;5065684;28;20558;-68
2023/01/28 00:28:44;;;;;;;4.68;1.27;;;3.40;95.90;;;;;;5063813;28;20028;-69
2023/01/28 00:31:22;;;;;;;2.88;1.25;;;3.30;95.90;;;;;;5051356;28;20038;-67
2023/01/28 00:33:49;;;;;;;2.53;1.33;;;3.30;95.90;;;;;;5045228;28;20031;-65
2023/01/28 00:36:16;;;;;;;2.53;1.17;;;3.30;95.80;;;;;;5069167;28;20020;-68
2023/01/28 00:38:42;;;;;;;3.63;1.00;;;3.30;95.70;;;;;;5069838;28;20020;-67
2023/01/28 00:41:16;;;;;;;3.95;1.45;;;3.30;95.80;;;;;;5043690;28;20937;-67
2023/01/28 00:43:44;;;;;;;4.22;1.27;;;3.30;95.80;;;;;;5050972;28;20669;-68
2023/01/28 00:46:11;;;;;;;4.90;1.40;;;3.30;95.80;;;;;;5051151;28;20167;-68
2023/01/28 00:48:39;;;;;;;3.28;1.55;;;3.20;95.80;;;;;;5066438;28;20024;-66
2023/01/28 00:51:06;;;;;;;4.25;1.45;;;3.20;95.90;;;;;;5067104;28;20029;-67
2023/01/28 00:53:33;;;;;;;5.97;1.50;;;3.20;95.80;;;;;;5068206;28;20032;-67
2023/01/28 00:55:59;;;;;;;4.18;1.52;;;3.20;95.60;;;;;;5064139;28;20038;-67
2023/01/28 00:58:25;;;;;;;2.30;1.38;;;3.20;95.60;;;;;;5067329;28;20074;-68
2023/01/28 01:00:51;;;;;;;4.35;1.73;;;3.20;95.60;;;;;;5072603;28;20511;-68
2023/01/28 01:03:18;;;;;;;2.97;1.52;;;3.20;95.60;;;;;;5062245;28;20050;-67
2023/01/28 01:05:44;;;;;;;3.85;1.63;;;3.20;95.60;;;;;;5041848;28;20086;-68
2023/01/28 01:08:10;;;;;;;3.58;1.63;;;3.20;95.50;;;;;;5068728;28;20165;-67
2023/01/28 01:10:37;;;;;;;7.90;1.85;;;3.20;95.60;;;;;;5067121;28;20790;-68
2023/01/28 01:13:06;;;;;;;3.83;1.85;;;3.20;95.30;;;;;;5047412;28;20475;-68
2023/01/28 01:15:32;;;;;;;4.57;1.75;;;3.20;94.70;;;;;;5068521;28;20417;-68
2023/01/28 01:17:58;;;;;;;2.97;1.63;;;3.20;94.70;;;;;;5049258;28;20085;-67
2023/01/28 01:20:32;;;;;;;4.05;1.65;;;3.20;94.80;;;;;;5049607;28;20039;-68
2023/01/28 01:28:14;;;;;;;2.72;1.40;;;3.20;94.80;;;;;;4986440;28;20100;-68
2023/01/28 01:30:40;;;;;;;4.40;1.60;;;3.20;94.90;;;;;;4969922;28;20038;-70
2023/01/28 01:33:06;;;;;;;4.80;1.52;;;3.20;95.00;;;;;;4966940;28;20394;-70
2023/01/28 01:35:32;;;;;;;4.80;2.03;;;3.20;95.00;;;;;;4987416;28;20046;-70
2023/01/28 01:37:58;;;;;;;3.55;1.73;;;3.20;95.00;;;;;;4950746;28;20166;-70
2023/01/28 01:40:23;;;;;;;5.55;1.55;;;3.20;95.00;;;;;;4956041;28;20727;-70
2023/01/28 01:42:49;;;;;;;3.30;1.55;;;3.20;94.80;;;;;;4953306;28;20517;-70
2023/01/28 01:45:18;;;;;;;3.03;1.63;;;3.20;94.80;;;;;;4963629;28;20587;-69
2023/01/28 01:48:23;;;;;;;3.97;1.80;;;3.20;94.80;;;;;;4952300;28;20037;-70
2023/01/28 01:50:59;;;;;;;7.22;1.55;;;3.20;94.70;;;;;;4952917;28;20058;-70
2023/01/28 01:53:27;;;;;;;3.05;1.55;;;3.20;94.40;;;;;;4946898;28;20035;-70
2023/01/28 01:55:59;;;;;;;4.13;2.13;;;3.20;94.60;;;;;;4964564;28;20443;-70
2023/01/28 01:58:28;;;;;;;3.08;1.50;;;3.10;94.70;;;;;;4938681;28;20526;-71
2023/01/28 02:00:54;;;;;;;3.45;1.73;;;3.10;94.90;;;;;;4955206;28;20033;-70
2023/01/28 02:06:04;;;;;;;3.83;1.20;;;3.10;94.60;;;;;;4965722;28;20129;-70
2023/01/28 02:08:30;;;;;;;4.25;1.42;;;3.10;94.60;;;;;;4968573;28;20034;-70
2023/01/28 02:11:03;;;;;;;4.50;1.52;;;3.10;94.30;;;;;;4963552;28;20477;-70
2023/01/28 02:16:06;;;;;;;3.25;2.08;;;3.10;94.30;;;;;;4962377;28;20146;-70
2023/01/28 02:18:32;;;;;;;4.80;1.35;;;3.10;94.30;;;;;;4939933;28;20073;-70
2023/01/28 02:21:19;;;;;;;5.45;1.52;;;3.10;94.20;;;;;;4942963;28;20031;-70
2023/01/28 02:24:18;;;;;;;4.20;1.20;;;3.10;94.20;;;;;;4954400;28;20062;-70
2023/01/28 02:27:07;;;;;;;2.92;1.60;;;3.10;94.30;;;;;;4925794;28;20053;-70
2023/01/28 02:29:42;;;;;;;4.90;1.42;;;3.10;94.40;;;;;;4939182;28;20406;-70
2023/01/28 02:32:15;;;;;;;2.13;0.98;;;3.10;95.00;;;;;;4949023;28;20046;-70
2023/01/28 02:34:46;;;;;;;5.47;1.45;;;3.10;94.70;;;;;;4945414;28;20130;-70
2023/01/28 02:37:14;;;;;;;4.07;1.52;;;3.10;94.70;;;;;;4953034;28;20440;-69
2023/01/28 02:39:47;;;;;;;2.45;1.17;;;3.10;94.50;;;;;;4951954;28;20027;-70
2023/01/28 02:42:21;;;;;;;1.92;1.20;;;3.10;94.50;;;;;;4946377;28;20038;-70
2023/01/28 02:44:47;;;;;;;2.88;1.35;;;3.10;94.60;;;;;;4953568;28;20120;-70
2023/01/28 02:50:06;;;;;;;2.92;1.33;;;3.10;94.80;;;;;;4956131;28;20121;-70
2023/01/28 02:55:56;;;;;;;3.65;1.48;;;3.10;94.60;;;;;;4951626;28;20039;-70
2023/01/28 02:58:44;;;;;;;4.80;1.30;;;3.10;94.60;;;;;;4943309;28;20043;-70
2023/01/28 03:01:38;;;;;;;3.88;1.60;;;3.10;94.60;;;;;;4951144;28;20050;-70
2023/01/28 03:04:30;;;;;;;6.50;1.77;;;3.20;94.60;;;;;;4950648;28;20034;-70
2023/01/28 03:07:03;;;;;;;4.63;1.75;;;3.20;94.60;;;;;;4934719;28;20046;-70
2023/01/28 03:09:29;;;;;;;2.92;1.25;;;3.10;94.50;;;;;;4952399;28;20716;-72
2023/01/28 03:37:28;;;;;;;3.00;1.42;;;3.10;94.80;;;;;;4946234;28;20563;-70
2023/01/28 03:40:10;;;;;;;3.85;1.50;;;3.10;94.80;;;;;;4945692;28;20027;-70
2023/01/28 03:42:36;;;;;;;3.58;1.50;;;3.10;94.90;;;;;;4945971;28;20149;-70
2023/01/28 03:45:10;;;;;;;3.78;1.45;;;3.10;95.00;;;;;;4949614;28;20117;-70
2023/01/28 03:47:38;;;;;;;3.33;1.50;;;3.10;95.00;;;;;;4951578;28;20065;-70
2023/01/28 03:50:05;;;;;;;3.58;1.50;;;3.10;95.00;;;;;;4953345;28;20047;-70
2023/01/28 03:52:37;;;;;;;5.53;1.90;;;3.10;95.00;;;;;;4952670;28;20055;-70
2023/01/28 03:55:24;;;;;;;2.45;1.33;;;3.10;94.90;;;;;;4954794;28;20476;-70
2023/01/28 03:57:50;;;;;;;4.30;1.90;;;3.10;95.20;;;;;;4949894;28;20518;-70
2023/01/28 04:00:17;;;;;;;2.88;1.35;;;3.10;95.00;;;;;;4934487;28;20117;-70
2023/01/28 04:02:43;;;;;;;2.53;1.23;;;3.10;95.30;;;;;;4941677;28;20031;-70
2023/01/28 04:05:14;;;;;;;4.32;1.85;;;3.10;95.10;;;;;;4955720;28;20065;-70
2023/01/28 04:07:46;;;;;;;3.58;1.70;;;3.10;95.10;;;;;;4942182;28;20646;-70
2023/01/28 04:10:42;;;;;;;4.63;1.65;;;3.10;95.00;;;;;;4948985;28;20042;-70
2023/01/28 04:13:18;;;;;;;4.07;1.83;;;3.00;95.00;;;;;;4947893;28;20088;-70
2023/01/28 04:15:44;;;;;;;1.50;0.77;;;3.10;95.10;;;;;;4951675;28;20035;-70
2023/01/28 04:18:11;;;;;;;3.17;1.60;;;3.10;95.10;;;;;;4946235;28;20035;-70
2023/01/28 04:20:38;;;;;;;5.88;1.70;;;3.10;95.10;;;;;;4957423;28;20039;-70
2023/01/28 04:23:05;;;;;;;3.33;1.50;;;3.00;95.10;;;;;;4943571;28;20039;-67
2023/01/28 04:25:31;;;;;;;2.05;1.40;;;3.10;95.10;;;;;;4946479;28;20034;-70
2023/01/28 04:27:57;;;;;;;3.25;1.55;;;3.10;95.10;;;;;;4936210;28;20035;-70
2023/01/28 04:30:26;;;;;;;4.57;1.42;;;3.00;95.00;;;;;;4943618;28;20039;-68
2023/01/28 04:33:14;;;;;;;8.35;1.75;;;3.10;95.00;;;;;;4959900;28;20207;-68
2023/01/28 04:35:50;;;;;;;2.72;1.35;;;3.10;95.00;;;;;;4956221;28;20035;-68
2023/01/28 04:38:22;;;;;;;3.15;1.35;;;3.10;95.00;;;;;;4949105;28;20070;-68
2023/01/28 04:41:19;;;;;;;2.88;1.20;;;3.10;95.00;;;;;;4929640;28;20038;-68
2023/01/28 04:43:48;;;;;;;3.20;1.67;;;3.10;94.80;;;;;;4954066;28;20054;-68
2023/01/28 04:46:29;;;;;;;3.45;1.40;;;3.10;94.80;;;;;;4951885;28;20031;-68
2023/01/28 04:49:13;;;;;;;3.28;1.48;;;3.10;94.70;;;;;;4947597;28;20078;-68
2023/01/28 04:52:14;;;;;;;3.20;1.55;;;3.10;94.70;;;;;;4901627;29;20036;-68
2023/01/28 04:55:07;;;;;;;2.35;1.30;;;3.00;94.80;;;;;;4950762;28;20047;-68
2023/01/28 04:57:33;;;;;;;3.88;1.50;;;3.10;94.70;;;;;;4938939;28;20122;-68
2023/01/28 05:00:00;;;;;;;3.42;1.55;;;3.10;94.60;;;;;;4953652;28;20039;-68
2023/01/28 05:02:26;;;;;;;2.45;1.13;;;3.10;94.60;;;;;;4936607;28;20039;-68
2023/01/28 05:04:52;;;;;;;4.65;1.50;;;3.00;94.40;;;;;;4947767;28;20046;-68
2023/01/28 05:07:36;;;;;;;3.22;1.27;;;3.00;94.50;;;;;;4951747;28;20054;-69
2023/01/28 05:10:03;;;;;;;3.53;1.75;;;3.00;94.50;;;;;;4953298;28;20035;-68
2023/01/28 05:12:31;;;;;;;4.88;1.35;;;3.00;94.40;;;;;;4947572;28;20043;-68
2023/01/28 05:15:00;;;;;;;2.53;1.30;;;3.10;94.30;;;;;;4944169;28;20041;-68
2023/01/28 05:17:27;;;;;;;3.08;1.30;;;3.10;94.30;;;;;;4946911;28;20026;-68
2023/01/28 05:19:53;;;;;;;4.60;1.65;;;3.00;94.30;;;;;;4955677;28;20059;-68
2023/01/28 05:22:22;;;;;;;3.50;1.30;;;3.10;94.50;;;;;;4943700;28;20035;-68
2023/01/28 05:25:09;;;;;;;3.72;1.67;;;3.10;94.40;;;;;;4951690;28;20122;-68
2023/01/28 05:27:35;;;;;;;2.95;1.50;;;3.10;94.20;;;;;;4945965;28;20038;-68
2023/01/28 05:30:01;;;;;;;4.88;1.52;;;3.10;94.00;;;;;;4942896;28;20046;-68
2023/01/28 05:32:27;;;;;;;2.38;1.42;;;3.10;93.90;;;;;;4955415;28;20042;-68
2023/01/28 05:34:53;;;;;;;5.20;1.58;;;3.10;93.90;;;;;;4949212;28;20035;-68
2023/01/28 05:37:19;;;;;;;4.07;2.05;;;3.10;94.10;;;;;;4960453;28;20783;-68
2023/01/28 05:39:45;;;;;;;2.63;2.00;;;3.10;93.20;;;;;;4949641;28;20035;-67
2023/01/28 05:42:11;;;;;;;4.85;2.20;;;3.10;93.50;;;;;;4951336;28;20769;-68
2023/01/28 05:44:42;;;;;;;1.98;1.10;;;3.00;93.10;;;;;;4943711;28;20495;-68
2023/01/28 05:47:17;;;;;;;3.88;1.60;;;3.00;93.20;;;;;;4953016;28;20046;-68
2023/01/28 05:49:50;;;;;;;3.45;1.67;;;3.00;93.00;;;;;;4949866;28;20046;-68
2023/01/28 05:52:34;;;;;;;2.85;1.48;;;3.00;92.90;;;;;;4945032;28;20066;-68
2023/01/28 05:55:01;;;;;;;2.70;1.40;;;3.00;93.10;;;;;;4943497;28;20093;-68
2023/01/28 05:57:26;;;;;;;3.30;1.67;;;3.00;93.40;;;;;;4945034;28;20035;-68
2023/01/28 05:59:52;;;;;;;3.97;2.22;;;3.00;93.60;;;;;;4944808;28;20038;-68
2023/01/28 06:02:18;;;;;;;2.35;1.50;;;3.10;93.60;;;;;;4949783;28;20039;-68
2023/01/28 06:04:44;;;;;;;6.18;2.03;;;3.10;93.70;;;;;;4945136;28;20458;-70
2023/01/28 06:07:12;;;;;;;4.45;2.40;;;3.10;93.80;;;;;;4954794;28;20422;-68
2023/01/28 06:09:38;;;;;;;5.85;2.72;;;3.10;93.60;;;;;;4943107;28;20045;-68
2023/01/28 06:12:05;;;;;;;4.85;2.50;;;3.10;93.40;;;;;;4946826;28;20443;-68
2023/01/28 06:14:39;;;;;;;4.07;2.17;;;3.10;93.40;;;;;;4934696;28;20051;-68
2023/01/28 06:17:24;;;;;;;2.50;1.75;;;3.10;93.30;;;;;;4953355;28;20063;-68
2023/01/28 06:20:07;;;;;;;4.82;2.17;;;3.10;93.40;;;;;;4962118;28;20027;-68
2023/01/28 06:22:35;;;;;;;3.10;2.10;;;3.10;93.80;;;;;;4939954;28;20031;-68
2023/01/28 06:25:01;;;;;;;3.45;1.92;;;3.10;93.80;;;;;;4963359;28;20808;-69
2023/01/28 06:27:27;;;;;;;3.97;2.58;;;3.10;93.50;;;;;;4947563;28;20038;-69
2023/01/28 06:29:53;;;;;;;4.60;2.78;;;3.10;93.50;;;;;;4944033;28;20105;-68
2023/01/28 06:32:19;;;;;;;5.30;3.17;;;3.10;93.30;;;;;;4957422;28;20046;-68
2023/01/28 06:34:45;;;;;;;5.18;3.00;;;3.10;92.90;;;;;;4963253;28;20034;-68
2023/01/28 06:37:14;;;;;;;7.07;3.28;;;3.10;93.00;;;;;;4965833;28;20038;-69
2023/01/28 06:39:40;;;;;;;7.47;3.65;;;3.10;92.60;;;;;;4968372;28;20056;-68
2023/01/28 06:42:06;;;;;;;5.20;2.60;;;3.10;92.80;;;;;;4961673;28;20503;-68
2023/01/28 06:44:31;;;;;;;4.60;2.88;;;3.10;92.70;;;;;;4964422;28;20832;-69
2023/01/28 06:46:57;;;;;;;5.93;3.35;;;3.10;92.70;;;;;;4961212;28;20030;-69
2023/01/28 06:49:23;;;;;;;4.72;2.63;;;3.20;92.90;;;;;;4963825;28;20840;-69
2023/01/28 06:51:49;;;;;;;5.85;2.58;;;3.20;93.10;;;;;;4960466;28;20497;-68
2023/01/28 06:54:15;;;;;;;8.65;3.53;;;3.20;93.20;;;;;;4963642;28;20070;-68
2023/01/28 06:56:41;;;;;;;5.35;2.97;;;3.20;93.10;;;;;;4956370;28;20035;-68
2023/01/28 06:59:06;;;;;;;6.25;3.42;;;3.20;93.00;;;;;;4959230;28;20174;-69
2023/01/28 07:01:32;;;;;;;7.60;3.70;;;3.20;93.10;;;;;;4960143;28;20041;-68
2023/01/28 07:03:58;;;;;;;6.40;2.58;;;3.30;93.00;;;;;;4969712;28;20829;-68
2023/01/28 07:06:24;;;;;;;5.82;2.92;;;3.30;92.90;;;;;;4959988;28;20039;-69
2023/01/28 07:08:50;;;;;;;3.88;2.60;;;3.30;92.80;;;;;;4959308;28;20117;-68
2023/01/28 07:11:15;;;;;;;4.45;2.80;;;3.30;92.80;;;;;;4960415;28;20049;-68
2023/01/28 07:13:42;;;;;;;5.10;3.20;;;3.30;92.90;;;;;;4959381;28;20979;-67
2023/01/28 07:16:08;;;;;;;5.63;2.90;;;3.30;93.10;;;;;;4961028;28;20034;-68
2023/01/28 07:18:34;;;;;;;3.90;2.65;;;3.30;93.20;;;;;;4961488;28;20050;-68
2023/01/28 07:21:00;;;;;;;3.95;2.63;;;3.30;93.00;;;;;;4957843;28;20034;-69
2023/01/28 07:23:25;;;;;;;5.60;2.67;;;3.30;92.70;;;;;;4968591;28;20073;-69
2023/01/28 07:25:51;;;;;;;5.03;3.15;;;3.30;92.50;;;;;;4968074;28;20049;-68
2023/01/28 07:28:20;;;;;;;6.47;2.80;;;3.30;92.30;;;;;;4961052;28;20198;-68
2023/01/28 07:30:50;;;;;;;7.20;3.00;;;3.30;92.30;;;;;;4960326;28;20042;-68
2023/01/28 07:33:16;;;;;;;6.93;3.40;;;3.40;92.00;;;;;;4961553;28;20410;-68
2023/01/28 07:35:43;;;;;;;5.22;3.15;;;3.40;92.10;;;;;;4972143;28;20088;-68
2023/01/28 07:38:09;;;;;;;6.57;3.00;;;3.40;92.20;;;;;;4954764;28;20100;-68
2023/01/28 07:40:35;;;;;;;4.72;2.80;;;3.40;92.30;;;;;;4961021;28;20035;-68
2023/01/28 07:43:01;;;;;;;4.85;2.80;;;3.40;92.40;;;;;;4964591;28;20493;-69
2023/01/28 07:45:35;;;;;;;4.80;2.60;;;3.50;92.40;;;;;;4950504;28;20045;-68
2023/01/28 07:48:04;;;;;;;3.72;2.13;;;3.50;92.10;;;;;;4956534;28;20047;-68
2023/01/28 07:50:33;;;;;;;4.25;2.20;;;3.50;91.60;;;;;;4955268;28;20602;-68
2023/01/28 07:53:01;;;;;;;4.88;2.50;;;3.50;91.70;;;;;;4955028;28;20034;-68
2023/01/28 07:55:27;;;;;;;3.13;2.25;;;3.50;91.90;;;;;;4951729;28;20439;-69
2023/01/28 07:57:55;;;;;;;2.65;1.80;;;3.60;92.00;;;;;;4958330;28;20145;-69
2023/01/28 08:00:22;;;;;;;3.63;1.70;;;3.60;91.90;;;;;;4960408;28;20031;-68
2023/01/28 08:02:48;;;;;;;2.97;1.40;;;3.60;91.60;;;;;;4959480;28;20045;-67
2023/01/28 08:05:18;;;;;;;3.28;2.05;;;3.60;91.20;;;;;;4960466;28;20122;-68
2023/01/28 08:07:44;;;;;;;2.90;1.38;;;3.70;91.40;;;;;;4962045;28;20057;-68
2023/01/28 08:10:11;;;;;;;3.60;1.30;;;3.70;91.70;;;;;;4954318;28;20030;-68
2023/01/28 08:12:38;;;;;;;1.70;1.15;;;3.80;92.00;;;;;;4956517;28;20073;-67
2023/01/28 08:15:04;;;;;;;2.53;1.33;;;3.80;92.00;;;;;;4957582;28;20088;-68
2023/01/28 08:17:31;;;;;;;3.42;1.40;;;3.80;91.70;;;;;;4958694;28;20031;-68
2023/01/28 08:19:56;;;;;;;2.03;1.30;;;3.90;91.90;;;;;;4953818;28;20031;-68
2023/01/28 08:22:26;;;;;;;3.78;1.27;;;3.90;91.60;;;;;;4959243;28;20039;-69
2023/01/28 08:24:52;;;;;;;2.88;1.40;;;4.00;91.40;;;;;;4949615;28;20039;-68
2023/01/28 08:27:18;;;;;;;2.38;1.17;;;4.00;91.10;;;;;;4962178;28;20081;-69
2023/01/28 08:29:44;;;;;;;1.35;1.00;;;4.10;91.00;;;;;;4955348;28;20090;-69
2023/01/28 08:32:10;;;;;;;2.90;1.20;;;4.10;90.70;;;;;;4959310;28;20042;-67
2023/01/28 08:34:36;;;;;;;4.65;1.08;;;4.10;90.90;;;;;;4951715;28;20042;-69
2023/01/28 08:37:04;;;;;;;3.38;1.15;;;4.20;90.20;;;;;;4960105;28;20031;-64
2023/01/28 08:39:30;;;;;;;4.05;1.45;;;4.20;90.50;;;;;;4956527;28;20043;-68
2023/01/28 08:41:55;;;;;;;2.20;1.17;;;4.20;90.60;;;;;;4960454;28;20045;-68
2023/01/28 08:44:21;;;;;;;2.22;1.00;;;4.30;90.40;;;;;;4956652;28;20049;-68
2023/01/28 08:46:47;;;;;;;3.58;1.10;;;4.30;88.40;;;;;;4962095;28;20035;-68
2023/01/28 08:49:13;;;;;;;1.60;1.17;;;4.40;88.00;;;;;;4961811;28;20376;-68
2023/01/28 08:51:38;;;;;;;2.05;1.00;;;4.40;88.10;;;;;;4953637;28;20817;-68
2023/01/28 08:54:04;;;;;;;2.05;0.90;;;4.40;88.50;;;;;;4969833;28;20130;-67
2023/01/28 08:56:30;;;;;;;2.95;0.85;;;4.50;87.90;;;;;;4959774;28;20101;-68
2023/01/28 08:58:56;;;;;;;1.10;0.88;;;4.50;87.40;;;;;;4959328;28;20038;-68
2023/01/28 09:01:22;;;;;;;2.08;0.73;;;4.50;85.80;;;;;;4959319;28;20118;-68
2023/01/28 09:03:47;;;;;;;1.48;0.70;;;4.60;84.10;;;;;;4963449;28;20725;-68
2023/01/28 09:06:14;;;;;;;1.85;0.75;;;4.70;84.40;;;;;;4963424;28;20145;-68
2023/01/28 09:08:39;;;;;;;4.65;0.70;;;4.80;82.70;;;;;;4957979;28;20043;-68
2023/01/28 09:11:05;;;;;;;1.17;0.88;;;4.90;81.40;;;;;;4958521;28;20064;-67
2023/01/28 09:13:31;;;;;;;2.15;0.98;;;4.90;80.10;;;;;;4961165;28;20045;-69
2023/01/28 09:15:57;;;;;;;1.80;0.73;;;4.90;80.00;;;;;;4957831;28;20073;-67
2023/01/28 09:18:23;;;;;;;2.55;0.63;;;4.90;80.40;;;;;;4966452;28;20042;-67
2023/01/28 09:20:48;;;;;;;4.18;0.82;;;5.00;79.40;;;;;;4959794;28;20537;-67
2023/01/28 09:23:14;;;;;;;1.27;0.80;;;5.00;80.90;;;;;;4957071;28;20035;-68
2023/01/28 09:25:40;;;;;;;1.75;0.80;;;5.00;78.80;;;;;;4955155;28;20036;-67
2023/01/28 09:28:06;;;;;;;1.98;0.90;;;5.00;77.70;;;;;;4955126;28;20109;-67
2023/01/28 09:30:33;;;;;;;1.60;0.80;;;5.00;76.70;;;;;;4966329;28;20053;-72
2023/01/28 09:32:59;;;;;;;1.40;0.70;;;5.00;77.20;;;;;;4957629;28;20046;-68
2023/01/28 09:35:25;;;;;;;1.45;0.93;;;5.00;77.70;;;;;;4958636;28;20035;-68
2023/01/28 09:37:55;;;;;;;1.95;0.90;;;5.00;77.90;;;;;;4953538;28;20126;-68
2023/01/28 09:40:27;;;;;;;1.08;0.57;;;5.10;78.10;;;;;;4953786;28;20098;-65
2023/01/28 09:43:12;;;;;;;5.68;1.05;;;5.10;77.80;;;;;;4960218;28;20034;-68
2023/01/28 09:45:42;;;;;;;2.03;0.85;;;5.10;77.00;;;;;;4960050;28;20068;-68
2023/01/28 09:48:21;;;;;;;3.00;1.02;;;5.00;76.90;;;;;;4952913;28;20042;-68
2023/01/28 09:50:51;;;;;;;2.22;0.75;;;5.10;76.80;;;;;;4942929;28;20047;-68
2023/01/28 09:53:20;;;;;;;1.20;0.73;;;5.10;75.40;;;;;;4958249;28;20759;-68
2023/01/28 09:56:15;;;;;;;1.92;0.57;;;5.10;74.70;;;;;;4958033;28;20031;-68
2023/01/28 09:58:42;;;;;;;1.30;0.63;;;5.10;75.80;;;;;;4956894;28;20230;-68
2023/01/28 10:01:19;;;;;;;2.92;1.00;;;5.10;75.90;;;;;;4959325;28;20066;-67
2023/01/28 10:04:16;;;;;;;1.48;0.75;;;5.10;75.60;;;;;;4957507;28;20039;-69
2023/01/28 10:07:02;;;;;;;2.00;0.90;;;5.10;75.90;;;;;;4958571;28;20393;-69
2023/01/28 10:09:46;;;;;;;1.30;0.70;;;5.10;76.70;;;;;;4952011;28;20101;-67
2023/01/28 10:12:33;;;;;;;2.65;0.60;;;5.10;77.00;;;;;;4965778;28;20034;-68
2023/01/28 10:15:09;;;;;;;;;;;5.10;77.60;;;;;;4954957;28;20344;-67
2023/01/28 10:18:00;;;;;;;1.70;0.65;;;5.20;76.80;;;;;;4958679;28;19921;-67
2023/01/28 10:20:42;;;;;;;1.70;0.60;;;5.20;76.70;;;;;;4962675;28;20035;-67
2023/01/28 10:23:20;;;;;;;2.42;0.60;;;5.20;76.70;;;;;;4962073;28;20390;-68
2023/01/28 10:25:49;;;;;;;2.30;0.80;;;5.20;78.20;;;;;;4949311;28;20039;-67
2023/01/28 10:28:34;;;;;;;1.67;0.68;;;5.30;79.60;;;;;;4957107;28;20817;-68
2023/01/28 10:31:00;;;;;;;3.13;0.85;;;5.30;78.50;;;;;;4963934;28;20778;-68
2023/01/28 10:33:35;;;;;;;1.05;0.60;;;5.30;76.50;;;;;;4957131;28;20034;-67
2023/01/28 10:36:01;;;;;;;1.23;0.80;;;5.40;76.30;;;;;;4953318;28;20037;-67
2023/01/28 10:38:29;;;;;;;1.52;0.70;;;5.40;73.90;;;;;;4970874;28;20031;-68
2023/01/28 10:41:03;;;;;;;1.35;0.70;;;5.40;74.90;;;;;;4969751;28;20034;-68
2023/01/28 10:43:36;;;;;;;1.42;0.65;;;5.30;73.90;;;;;;4959016;28;20038;-67
2023/01/28 10:46:18;;;;;;;1.52;0.80;;;5.30;75.10;;;;;;4961196;28;20066;-68
2023/01/28 10:49:03;;;;;;;2.53;0.70;;;5.30;75.30;;;;;;4961200;28;20038;-67
2023/01/28 10:51:34;;;;;;;1.00;0.90;;;5.40;74.40;;;;;;4953992;28;20100;-70
2023/01/28 10:54:00;;;;;;;0.80;0.70;;;5.40;73.70;;;;;;4960606;28;20035;-68
2023/01/28 10:56:34;;;;;;;3.33;1.75;;;5.40;73.40;;;;;;4972092;28;20947;-70
2023/01/28 10:59:00;;;;;;;3.38;1.85;;;5.40;74.20;;;;;;4958506;28;20049;-69
2023/01/28 11:01:38;;;;;;;6.57;3.20;;;5.40;76.00;;;;;;4961397;28;20495;-68
2023/01/28 11:04:04;;;;;;;3.35;1.80;;;5.40;76.30;;;;;;4955886;28;20502;-68
2023/01/28 11:06:29;;;;;;;3.88;2.10;;;5.50;75.80;;;;;;4951414;28;20051;-68
2023/01/28 11:08:55;;;;;;;8.20;2.95;;;5.50;77.10;;;;;;4951185;28;20699;-67
2023/01/28 11:11:25;;;;;;;5.72;3.78;;;5.50;75.80;;;;;;4953630;28;20031;-68
2023/01/28 11:13:53;;;;;;;4.20;2.50;;;5.50;73.80;;;;;;4959857;28;20097;-67
2023/01/28 11:16:20;;;;;;;1.23;0.85;;;5.50;74.60;;;;;;4958625;28;20130;-68
2023/01/28 11:18:56;;;;;;;2.33;1.50;;;5.60;73.50;;;;;;4970260;28;20042;-72
2023/01/28 11:21:24;;;;;;;5.05;2.75;;;5.50;73.70;;;;;;4960302;28;20047;-69
2023/01/28 11:23:53;;;;;;;6.63;3.88;;;5.50;75.50;;;;;;4967428;28;20050;-69
2023/01/28 11:26:22;;;;;;;7.28;3.00;;;5.50;74.10;;;;;;4963988;28;20039;-68
2023/01/28 11:28:49;;;;;;;3.53;2.25;;;5.50;74.70;;;;;;4958728;28;20062;-68
2023/01/28 11:31:16;;;;;;;3.80;1.77;;;5.40;76.20;;;;;;4950360;28;20101;-67
2023/01/28 11:33:50;;;;;;;7.05;1.85;;;5.40;76.50;;;;;;4949556;28;20039;-69
2023/01/28 11:36:19;;;;;;;2.05;1.40;;;5.40;76.90;;;;;;4954969;28;20108;-69
2023/01/28 11:38:57;;;;;;;3.20;1.92;;;5.40;75.40;;;;;;4966433;28;20026;-68
2023/01/28 11:41:35;;;;;;;3.53;2.80;;;5.40;76.20;;;;;;4966145;28;20615;-67
2023/01/28 11:44:23;;;;;;;3.97;2.47;;;5.30;77.00;;;;;;4968089;28;20043;-68
2023/01/28 11:47:16;;;;;;;5.75;4.05;;;5.40;77.80;;;;;;4951659;28;20035;-67
2023/01/28 11:50:13;;;;;;;6.03;2.55;;;5.40;77.80;;;;;;4963838;28;20037;-68
2023/01/28 11:53:10;;;;;;;3.35;1.00;;;5.40;75.90;;;;;;4958353;28;20202;-68
2023/01/28 11:55:39;;;;;;;2.67;1.40;;;5.40;75.70;;;;;;4959416;28;20058;-68
2023/01/28 11:58:05;;;;;;;2.80;2.10;;;5.40;76.60;;;;;;4958802;28;20102;-68
2023/01/28 12:00:55;;;;;;;4.13;2.03;;;5.40;76.50;;;;;;4960320;28;20034;-68
2023/01/28 12:03:27;;;;;;;3.72;1.40;;;5.40;77.30;;;;;;4953942;28;20577;-68
2023/01/28 12:06:22;;;;;;;14.30;8.05;;;5.40;76.90;;;;;;4964121;28;20490;-68
2023/01/28 12:09:08;;;;;;;11.98;7.18;;;5.40;76.80;;;;;;4951573;28;20683;-68
2023/01/28 12:14:51;;;;;;;23.48;9.80;;;5.40;75.30;;;;;;4958425;28;20503;-68
2023/01/28 12:17:44;;;;;;;10.15;3.72;;;5.40;76.40;;;;;;4958643;28;20030;-68
2023/01/28 12:20:30;;;;;;;22.73;8.45;;;5.40;75.40;;;;;;4953672;28;20035;-68
2023/01/28 12:23:28;;;;;;;6.75;3.28;;;5.40;75.10;;;;;;4957363;28;20657;-68
2023/01/28 12:26:00;;;;;;;25.45;9.20;;;5.40;75.50;;;;;;4958428;28;20058;-68
2023/01/28 12:28:43;;;;;;;14.93;5.82;;;5.40;76.70;;;;;;4971269;28;20503;-68
2023/01/28 12:31:12;;;;;;;3.28;1.17;;;5.40;77.40;;;;;;4963741;28;20038;-68
2023/01/28 12:34:04;;;;;;;0.80;0.80;;;5.40;77.20;;;;;;4964605;28;20116;-67
2023/01/28 12:36:48;;;;;;;2.40;1.13;;;5.30;77.40;;;;;;4958986;28;20131;-68
2023/01/28 12:39:44;;;;;;;1.35;0.80;;;5.30;77.50;;;;;;4963839;28;20034;-68
2023/01/28 12:42:17;;;;;;;0.98;0.75;;;5.40;77.80;;;;;;4954466;28;20860;-68
2023/01/28 12:44:49;;;;;;;1.35;0.70;;;5.40;77.20;;;;;;4951966;28;20459;-68
2023/01/28 12:47:25;;;;;;;1.83;0.90;;;5.40;77.10;;;;;;4959028;28;20470;-67
2023/01/28 12:50:17;;;;;;;2.33;0.57;;;5.40;78.10;;;;;;4942269;28;20046;-67
2023/01/28 12:52:53;;;;;;;2.72;0.77;;;5.40;77.70;;;;;;4949362;28;20047;-68
2023/01/28 12:55:42;;;;;;;0.67;0.60;;;5.40;76.90;;;;;;4960013;28;20034;-66
2023/01/28 12:58:17;;;;;;;0.57;0.43;;;5.40;77.00;;;;;;4961622;28;20038;-68
2023/01/28 13:00:49;;;;;;;1.38;0.80;;;5.30;78.20;;;;;;4954543;28;20106;-68
2023/01/28 13:03:55;;;;;;;1.77;0.95;;;5.40;78.00;;;;;;4960629;28;20524;-68
2023/01/28 13:06:40;;;;;;;1.55;0.63;;;5.40;78.30;;;;;;4884014;29;20207;-67
2023/01/28 13:09:26;;;;;;;1.15;0.70;;;5.30;78.70;;;;;;4961004;28;20600;-67
2023/01/28 13:11:56;;;;;;;2.43;0.80;;;5.30;77.60;;;;;;4964949;28;20042;-66
2023/01/28 13:14:27;;;;;;;0.50;0.50;;;5.30;77.50;;;;;;4963863;28;20080;-67
2023/01/28 13:16:53;;;;;;;0.60;0.50;;;5.40;78.00;;;;;;4962492;28;20778;-67
2023/01/28 13:19:18;;;;;;;1.35;0.90;;;5.40;78.60;;;;;;4956745;28;20049;-70
2023/01/28 13:21:46;;;;;;;0.57;0.52;;;5.40;78.60;;;;;;4960127;28;20130;-68
2023/01/28 13:24:12;;;;;;;0.80;0.70;;;5.40;78.10;;;;;;4954363;28;20119;-67
2023/01/28 13:26:42;;;;;;;2.42;0.50;;;5.40;79.20;;;;;;4960070;28;20603;-68
2023/01/28 13:29:14;;;;;;;2.70;0.73;;;5.40;78.50;;;;;;4959009;28;20030;-67
2023/01/28 13:31:45;;;;;;;0.57;0.57;;;5.50;77.30;;;;;;4965009;28;20039;-67
2023/01/28 13:34:31;;;;;;;0.85;0.50;;;5.40;75.20;;;;;;4954813;28;20390;-67
2023/01/28 13:37:17;;;;;;;0.20;0.20;;;5.40;73.80;;;;;;4958590;28;20030;-68
2023/01/28 13:40:01;;;;;;;0.77;0.50;;;5.40;73.60;;;;;;4954990;28;20030;-68
2023/01/28 13:42:29;;;;;;;0.47;0.38;;;5.40;74.10;;;;;;4955029;28;20042;-67
2023/01/28 13:45:07;;;;;;;0.68;0.25;;;5.40;74.70;;;;;;4960533;28;20526;-68
2023/01/28 13:47:36;;;;;;;0.30;0.30;;;5.40;75.20;;;;;;4943674;28;20451;-67
2023/01/28 13:50:13;;;;;;;0.20;0.20;;;5.50;75.80;;;;;;4954861;28;20847;-68
2023/01/28 13:52:58;;;;;;;0.88;0.40;;;5.50;75.10;;;;;;4962785;28;20038;-68
2023/01/28 13:55:35;;;;;;;0.88;0.55;;;5.50;75.40;;;;;;4958585;28;20035;-67
2023/01/28 13:58:03;;;;;;;1.77;1.00;;;5.50;74.00;;;;;;4959717;28;20027;-68
2023/01/28 14:01:00;;;;;;;1.35;0.95;;;5.40;73.70;;;;;;4950083;28;20120;-68
2023/01/28 14:03:56;;;;;;;3.03;1.60;;;5.40;74.50;;;;;;4952073;28;20039;-68
2023/01/28 14:06:51;;;;;;;1.45;0.95;;;5.40;75.90;;;;;;4945942;28;20058;-66
2023/01/28 14:09:44;;;;;;;4.60;1.40;;;5.50;76.10;;;;;;4955977;28;20057;-67